createdAt,value
2022-11-24T00:00:19.386Z,22.50
2022-11-24T00:03:43.640Z,46.75
2022-11-24T00:06:47.473Z,46.75
2022-11-24T00:09:52.161Z,25.75
2022-11-24T00:12:55.842Z,9.00
2022-11-24T00:16:06.494Z,9.75
2022-11-24T00:19:14.600Z,20.25
2022-11-24T00:22:39.275Z,36.00
2022-11-24T00:25:44.258Z,9.00
2022-11-24T00:28:48.768Z,8.75
2022-11-24T00:31:52.420Z,13.75
2022-11-24T00:34:55.864Z,13.00
2022-11-24T00:37:59.517Z,9.75
2022-11-24T00:41:04.230Z,11.00
2022-11-24T00:44:08.249Z,12.50
2022-11-24T00:47:11.816Z,10.25
2022-11-24T00:50:15.665Z,14.00
2022-11-24T00:53:19.073Z,14.00
2022-11-24T00:56:24.365Z,10.00
2022-11-24T00:59:27.677Z,8.00
2022-11-24T01:02:31.453Z,7.00
2022-11-24T01:05:37.439Z,9.25
2022-11-24T01:08:42.247Z,4.50
2022-11-24T01:12:02.249Z,6.00
2022-11-24T01:15:06.839Z,7.50
2022-11-24T01:18:10.789Z,5.50
2022-11-24T01:21:15.501Z,5.50
2022-11-24T01:24:19.025Z,13.00
2022-11-24T01:27:24.077Z,10.00
2022-11-24T01:30:27.414Z,11.00
2022-11-24T01:33:31.088Z,14.25
2022-11-24T01:36:34.649Z,19.50
2022-11-24T01:39:38.253Z,15.25
2022-11-24T01:42:48.353Z,10.25
2022-11-24T01:45:52.038Z,13.00
2022-11-24T01:49:04.231Z,15.50
2022-11-24T01:52:12.312Z,18.50
2022-11-24T01:55:20.702Z,15.25
2022-11-24T01:58:31.010Z,22.25
2022-11-24T02:01:34.465Z,23.50
2022-11-24T02:04:59.635Z,19.50
2022-11-24T02:08:04.305Z,33.75
2022-11-24T02:11:08.018Z,17.75
2022-11-24T02:14:17.237Z,29.75
2022-11-24T02:17:20.882Z,16.25
2022-11-24T02:20:24.288Z,15.50
2022-11-24T02:23:38.869Z,18.50
2022-11-24T02:26:46.395Z,14.00
2022-11-24T02:29:50.573Z,24.50
2022-11-24T02:32:53.915Z,21.25
2022-11-24T02:35:57.674Z,41.00
2022-11-24T02:39:01.008Z,33.75
2022-11-24T02:42:11.355Z,30.00
2022-11-24T02:45:16.679Z,27.75
2022-11-24T02:48:20.290Z,17.25
2022-11-24T02:51:23.850Z,21.00
2022-11-24T02:54:27.563Z,17.75
2022-11-24T02:57:32.464Z,8.50
2022-11-24T03:00:36.313Z,14.75
2022-11-24T03:03:39.759Z,17.25
2022-11-24T03:06:43.677Z,11.50
2022-11-24T03:09:47.031Z,20.25
2022-11-24T03:12:52.018Z,26.50
2022-11-24T03:15:55.344Z,26.00
2022-11-24T03:18:59.004Z,36.25
2022-11-24T03:22:02.410Z,23.25
2022-11-24T03:25:24.964Z,21.25
2022-11-24T03:28:31.806Z,15.50
2022-11-24T03:31:36.123Z,15.75
2022-11-24T03:34:39.486Z,20.25
2022-11-24T03:37:45.060Z,23.50
2022-11-24T03:40:48.341Z,29.00
2022-11-24T03:43:53.402Z,29.00
2022-11-24T03:46:56.795Z,23.00
2022-11-24T03:50:00.379Z,17.25
2022-11-24T03:53:03.910Z,17.75
2022-11-24T03:56:07.989Z,17.50
2022-11-24T03:59:12.661Z,18.25
2022-11-24T04:02:16.327Z,11.25
2022-11-24T04:05:19.965Z,24.00
2022-11-24T04:08:23.608Z,35.00
2022-11-24T04:11:44.212Z,28.00
2022-11-24T04:14:49.256Z,23.50
2022-11-24T04:17:52.618Z,23.25
2022-11-24T04:20:56.497Z,23.75
2022-11-24T04:23:59.909Z,29.50
2022-11-24T04:27:03.621Z,22.00
2022-11-24T04:30:09.584Z,17.75
2022-11-24T04:33:14.118Z,31.00
2022-11-24T04:36:17.543Z,41.25
2022-11-24T04:39:25.094Z,97.25
2022-11-24T04:42:30.077Z,66.25
2022-11-24T04:45:35.089Z,45.00
2022-11-24T04:48:38.534Z,33.00
2022-11-24T04:51:43.101Z,22.75
2022-11-24T04:54:46.593Z,22.50
2022-11-24T04:57:50.328Z,80.00
2022-11-24T05:00:55.038Z,132.00
2022-11-24T05:03:59.586Z,82.50
2022-11-24T05:07:03.097Z,116.33
2022-11-24T05:10:25.085Z,52.50
2022-11-24T05:13:28.527Z,85.00
2022-11-24T05:16:33.724Z,57.50
2022-11-24T05:19:37.190Z,32.00
2022-11-24T05:22:41.022Z,89.50
2022-11-24T05:25:47.597Z,59.50
2022-11-24T05:28:51.774Z,61.25
2022-11-24T05:31:56.525Z,21.25
2022-11-24T05:35:02.213Z,104.25
2022-11-24T05:38:06.610Z,61.00
2022-11-24T05:41:10.410Z,40.50
2022-11-24T05:44:14.052Z,58.75
2022-11-24T05:47:19.391Z,70.25
2022-11-24T05:50:24.040Z,35.75
2022-11-24T05:53:27.836Z,65.50
2022-11-24T05:56:31.577Z,41.50
2022-11-24T05:59:35.418Z,53.75
2022-11-24T06:02:40.374Z,67.00
2022-11-24T06:05:48.160Z,59.50
2022-11-24T06:09:10.215Z,132.33
2022-11-24T06:12:14.569Z,43.00
2022-11-24T06:15:18.505Z,97.50
2022-11-24T06:18:23.669Z,76.25
2022-11-24T06:21:27.081Z,64.25
2022-11-24T06:24:30.832Z,61.25
2022-11-24T06:27:34.176Z,224.50
2022-11-24T06:30:37.872Z,84.25
2022-11-24T06:33:42.719Z,66.00
2022-11-24T06:36:47.033Z,59.50
2022-11-24T06:39:50.572Z,78.50
2022-11-24T06:42:54.323Z,65.25
2022-11-24T06:45:57.988Z,39.50
2022-11-24T06:49:03.153Z,39.75
2022-11-24T06:52:06.713Z,41.75
2022-11-24T06:55:10.841Z,60.50
2022-11-24T06:58:14.490Z,74.50
2022-11-24T07:01:19.135Z,63.75
2022-11-24T07:04:23.987Z,62.75
2022-11-24T07:07:27.748Z,82.75
2022-11-24T07:10:31.133Z,70.00
2022-11-24T07:13:35.426Z,87.50
2022-11-24T07:16:39.961Z,72.25
2022-11-24T07:19:45.219Z,79.25
2022-11-24T07:22:48.788Z,64.75
2022-11-24T07:25:52.563Z,66.50
2022-11-24T07:28:56.014Z,55.75
2022-11-24T07:32:05.228Z,217.33
2022-11-24T07:35:10.812Z,109.00
2022-11-24T07:38:14.635Z,100.00
2022-11-24T07:41:36.679Z,83.75
2022-11-24T07:44:40.760Z,174.00
2022-11-24T07:47:44.236Z,71.75
2022-11-24T07:50:55.326Z,70.25
2022-11-24T07:53:59.596Z,55.25
2022-11-24T07:57:03.324Z,75.75
2022-11-24T08:00:07.588Z,81.00
2022-11-24T08:03:11.497Z,110.67
2022-11-24T08:06:27.731Z,130.00
2022-11-24T08:09:34.156Z,145.33
2022-11-24T08:12:37.631Z,107.67
2022-11-24T08:15:41.383Z,114.67
2022-11-24T08:18:45.643Z,235.25
2022-11-24T08:21:50.794Z,112.75
2022-11-24T08:24:54.204Z,115.75
2022-11-24T08:27:58.106Z,116.00
2022-11-24T08:31:06.199Z,80.25
2022-11-24T08:34:10.849Z,83.75
2022-11-24T08:37:15.629Z,93.75
2022-11-24T08:40:19.374Z,84.25
2022-11-24T08:43:22.954Z,81.75
2022-11-24T08:46:26.715Z,88.75
2022-11-24T08:49:30.319Z,101.67
2022-11-24T08:52:35.412Z,88.75
2022-11-24T08:55:38.850Z,85.00
2022-11-24T08:58:43.301Z,94.00
2022-11-24T09:01:46.990Z,91.50
2022-11-24T09:04:51.193Z,85.25
2022-11-24T09:07:56.083Z,75.75
2022-11-24T09:11:03.823Z,72.75
2022-11-24T09:14:07.289Z,86.50
2022-11-24T09:17:11.700Z,77.00
2022-11-24T09:20:15.134Z,68.50
2022-11-24T09:23:21.266Z,65.75
2022-11-24T09:26:26.388Z,71.25
2022-11-24T09:29:31.275Z,100.00
2022-11-24T09:32:34.837Z,89.50
2022-11-24T09:35:39.916Z,70.75
2022-11-24T09:38:45.364Z,59.25
2022-11-24T09:42:05.278Z,62.50
2022-11-24T09:45:49.015Z,56.75
2022-11-24T09:48:52.337Z,59.50
2022-11-24T09:51:58.207Z,30.00
2022-11-24T09:55:14.143Z,36.50
2022-11-24T09:58:31.763Z,41.50
2022-11-24T10:01:41.617Z,36.00
2022-11-24T10:04:47.615Z,28.50
2022-11-24T10:08:11.922Z,39.25
2022-11-24T10:11:29.450Z,54.50
2022-11-24T10:15:01.628Z,53.50
2022-11-24T10:18:31.589Z,32.50
2022-11-24T10:22:04.701Z,29.25
2022-11-24T10:25:25.994Z,39.00
2022-11-24T10:28:39.126Z,49.50
2022-11-24T10:31:44.742Z,30.75
2022-11-24T10:34:53.444Z,43.75
2022-11-24T10:38:03.447Z,46.75
2022-11-24T10:41:13.422Z,65.00
2022-11-24T10:44:18.306Z,60.50
2022-11-24T10:47:23.032Z,78.00
2022-11-24T10:50:28.192Z,49.25
2022-11-24T10:53:33.726Z,37.25
2022-11-24T10:56:41.407Z,53.75
2022-11-24T10:59:46.798Z,52.50
2022-11-24T11:02:51.579Z,50.00
2022-11-24T11:05:58.681Z,55.00
2022-11-24T11:09:21.146Z,39.00
2022-11-24T11:12:45.717Z,38.50
2022-11-24T11:15:51.634Z,38.50
2022-11-24T11:18:55.654Z,42.75
2022-11-24T11:22:06.399Z,67.00
2022-11-24T11:25:22.296Z,43.50
2022-11-24T11:28:29.556Z,51.00
2022-11-24T11:31:35.808Z,38.75
2022-11-24T11:34:39.462Z,34.75
2022-11-24T11:37:45.285Z,54.75
2022-11-24T11:40:51.525Z,47.50
2022-11-24T11:44:06.158Z,62.00
2022-11-24T11:47:23.087Z,70.00
2022-11-24T11:50:39.221Z,75.75
2022-11-24T11:54:07.091Z,73.50
2022-11-24T11:57:18.784Z,105.50
2022-11-24T12:00:23.037Z,39.25
2022-11-24T12:04:03.468Z,20.75
2022-11-24T12:07:22.487Z,42.50
2022-11-24T12:10:35.255Z,29.75
2022-11-24T12:14:08.835Z,32.75
2022-11-24T12:17:22.451Z,28.75
2022-11-24T12:20:48.895Z,30.50
2022-11-24T12:24:04.695Z,29.75
2022-11-24T12:27:22.576Z,71.75
2022-11-24T12:30:29.468Z,52.50
2022-11-24T12:33:50.953Z,32.25
2022-11-24T12:37:20.193Z,35.00
2022-11-24T12:40:39.766Z,21.25
2022-11-24T12:43:52.047Z,12.50
2022-11-24T12:47:04.668Z,16.50
2022-11-24T12:50:11.634Z,13.00
2022-11-24T12:53:20.492Z,12.25
2022-11-24T12:56:30.005Z,27.25
2022-11-24T12:59:41.013Z,27.75
2022-11-24T13:03:07.938Z,35.00
2022-11-24T13:06:18.032Z,17.00
2022-11-24T13:09:23.377Z,13.25
2022-11-24T13:12:26.893Z,13.00
2022-11-24T13:15:45.681Z,10.00
2022-11-24T13:18:57.071Z,52.50
2022-11-24T13:22:14.940Z,71.50
2022-11-24T13:25:23.149Z,51.25
2022-11-24T13:29:08.949Z,24.00
2022-11-24T13:32:48.525Z,49.50
2022-11-24T13:36:28.789Z,25.50
2022-11-24T13:39:51.645Z,21.25
2022-11-24T13:43:26.721Z,12.25
2022-11-24T13:47:03.299Z,37.25
2022-11-24T13:50:15.212Z,78.00
2022-11-24T13:53:27.964Z,45.50
2022-11-24T13:56:33.126Z,54.50
2022-11-24T13:59:38.347Z,134.33
2022-11-24T14:02:45.396Z,61.50
2022-11-24T14:05:51.948Z,68.00
2022-11-24T14:08:56.680Z,61.50
2022-11-24T14:12:07.481Z,58.50
2022-11-24T14:15:24.241Z,95.25
2022-11-24T14:18:29.420Z,16.50
2022-11-24T14:21:37.578Z,49.75
2022-11-24T14:24:45.234Z,36.75
2022-11-24T14:27:49.171Z,73.00
2022-11-24T14:31:08.471Z,33.50
2022-11-24T14:34:19.266Z,65.00
2022-11-24T14:37:22.695Z,87.50
2022-11-24T14:40:43.599Z,78.50
2022-11-24T14:43:47.103Z,53.50
2022-11-24T14:46:52.554Z,46.25
2022-11-24T14:49:57.936Z,49.00
2022-11-24T14:53:02.300Z,51.00
2022-11-24T14:56:11.249Z,55.50
2022-11-24T14:59:23.316Z,39.00
2022-11-24T15:02:46.279Z,67.50
2022-11-24T15:06:19.970Z,87.75
2022-11-24T15:09:28.459Z,51.75
2022-11-24T15:12:34.971Z,63.50
2022-11-24T15:15:40.290Z,93.00
2022-11-24T15:18:48.011Z,94.50
2022-11-24T15:21:51.603Z,29.25
2022-11-24T15:24:55.768Z,88.25
2022-11-24T15:27:59.188Z,77.75
2022-11-24T15:31:04.954Z,73.00
2022-11-24T15:34:14.730Z,72.50
2022-11-24T15:37:18.449Z,76.50
2022-11-24T15:40:22.211Z,87.00
2022-11-24T15:43:30.992Z,90.25
2022-11-24T15:46:38.573Z,89.00
2022-11-24T15:49:43.949Z,86.50
2022-11-24T15:52:48.793Z,93.25
2022-11-24T15:55:53.796Z,180.00
2022-11-24T15:58:57.272Z,138.67
2022-11-24T16:02:01.038Z,112.67
2022-11-24T16:05:06.691Z,76.50
2022-11-24T16:08:14.182Z,95.75
2022-11-24T16:11:17.624Z,103.50
2022-11-24T16:14:21.515Z,92.00
2022-11-24T16:17:25.091Z,87.00
2022-11-24T16:20:30.170Z,87.00
2022-11-24T16:23:35.291Z,86.25
2022-11-24T16:26:39.453Z,76.50
2022-11-24T16:29:43.305Z,70.75
2022-11-24T16:32:47.166Z,65.75
2022-11-24T16:35:52.002Z,71.25
2022-11-24T16:38:55.740Z,74.75
2022-11-24T16:41:59.192Z,84.75
2022-11-24T16:45:03.347Z,91.25
2022-11-24T16:48:07.296Z,81.75
2022-11-24T16:51:13.693Z,89.00
2022-11-24T16:54:17.149Z,83.50
2022-11-24T16:57:20.951Z,98.25
2022-11-24T17:00:24.850Z,85.75
2022-11-24T17:03:33.254Z,83.00
2022-11-24T17:06:38.036Z,86.50
2022-11-24T17:09:41.729Z,80.25
2022-11-24T17:12:45.209Z,78.75
2022-11-24T17:15:53.947Z,66.50
2022-11-24T17:18:58.859Z,62.00
2022-11-24T17:22:04.194Z,83.25
2022-11-24T17:25:08.754Z,77.50
2022-11-24T17:28:12.606Z,65.50
2022-11-24T17:31:21.420Z,53.00
2022-11-24T17:34:25.198Z,68.75
2022-11-24T17:37:32.178Z,57.75
2022-11-24T17:40:35.996Z,61.25
2022-11-24T17:43:39.811Z,53.25
2022-11-24T17:46:43.628Z,92.25
2022-11-24T17:49:47.055Z,56.25
2022-11-24T17:52:52.276Z,73.00
2022-11-24T17:55:55.722Z,84.00
2022-11-24T17:59:01.832Z,65.50
2022-11-24T18:02:05.595Z,74.75
2022-11-24T18:05:10.374Z,65.25
2022-11-24T18:08:15.177Z,55.50
2022-11-24T18:11:24.685Z,56.00
2022-11-24T18:14:30.934Z,75.25
2022-11-24T18:17:34.767Z,85.75
2022-11-24T18:20:38.149Z,96.67
2022-11-24T18:23:44.051Z,168.00
2022-11-24T18:26:47.492Z,97.33
2022-11-24T18:29:56.038Z,89.00
2022-11-24T18:33:00.125Z,84.50
2022-11-24T18:36:06.872Z,80.75
2022-11-24T18:39:17.756Z,85.50
2022-11-24T18:42:22.407Z,60.50
2022-11-24T18:45:25.890Z,79.00
2022-11-24T18:48:29.612Z,67.75
2022-11-24T18:51:33.106Z,47.50
2022-11-24T18:54:38.403Z,19.50
2022-11-24T18:57:41.905Z,36.75
2022-11-24T19:00:45.686Z,27.50
2022-11-24T19:03:50.829Z,11.00
2022-11-24T19:06:54.572Z,20.50
2022-11-24T19:09:59.482Z,9.75
2022-11-24T19:13:03.275Z,22.00
2022-11-24T19:16:14.765Z,25.00
2022-11-24T19:19:18.648Z,21.50
2022-11-24T19:22:24.066Z,13.50
2022-11-24T19:25:29.658Z,39.25
2022-11-24T19:28:36.160Z,43.75
2022-11-24T19:31:40.448Z,44.00
2022-11-24T19:34:43.863Z,57.50
2022-11-24T19:37:47.614Z,57.25
2022-11-24T19:41:00.514Z,81.75
2022-11-24T19:44:04.468Z,78.25
2022-11-24T19:47:07.927Z,84.25
2022-11-24T19:50:12.887Z,92.50
2022-11-24T19:53:16.340Z,112.00
2022-11-24T19:56:23.371Z,101.25
2022-11-24T19:59:26.767Z,104.50
2022-11-24T20:02:31.746Z,102.50
2022-11-24T20:05:35.380Z,137.00
2022-11-24T20:08:40.059Z,117.00
2022-11-24T20:11:45.229Z,87.75
2022-11-24T20:14:48.920Z,72.25
2022-11-24T20:17:52.664Z,79.50
2022-11-24T20:20:56.406Z,85.50
2022-11-24T20:24:01.677Z,95.25
2022-11-24T20:27:06.998Z,95.50
2022-11-24T20:30:11.535Z,111.67
2022-11-24T20:33:15.472Z,102.00
2022-11-24T20:36:20.936Z,87.50
2022-11-24T20:39:26.526Z,77.50
2022-11-24T20:42:32.324Z,73.50
2022-11-24T20:45:37.430Z,58.50
2022-11-24T20:48:41.358Z,65.00
2022-11-24T20:51:47.717Z,89.00
2022-11-24T20:54:51.324Z,80.00
2022-11-24T20:57:56.663Z,84.75
2022-11-24T21:01:21.734Z,74.50
2022-11-24T21:04:27.847Z,80.50
2022-11-24T21:07:31.328Z,81.00
2022-11-24T21:10:35.174Z,86.75
2022-11-24T21:13:43.790Z,102.33
2022-11-24T21:16:47.646Z,96.00
2022-11-24T21:19:51.546Z,86.50
2022-11-24T21:22:55.431Z,85.25
2022-11-24T21:26:05.177Z,81.00
2022-11-24T21:29:14.069Z,24.50
2022-11-24T21:32:18.108Z,84.00
2022-11-24T21:35:40.233Z,79.00
2022-11-24T21:38:43.916Z,76.00
2022-11-24T21:41:47.733Z,75.50
2022-11-24T21:44:52.538Z,82.50
2022-11-24T21:47:57.878Z,81.50
2022-11-24T21:51:02.670Z,84.25
2022-11-24T21:54:06.894Z,99.00
2022-11-24T21:57:11.114Z,97.50
2022-11-24T22:00:17.934Z,94.50
2022-11-24T22:03:22.151Z,89.75
2022-11-24T22:06:25.828Z,87.25
2022-11-24T22:09:29.161Z,98.25
2022-11-24T22:12:33.015Z,93.00
2022-11-24T22:15:37.802Z,75.50
2022-11-24T22:18:43.067Z,99.75
2022-11-24T22:21:46.497Z,101.50
2022-11-24T22:24:50.180Z,77.00
2022-11-24T22:27:53.663Z,87.25
2022-11-24T22:30:58.753Z,89.00
2022-11-24T22:34:02.396Z,86.00
2022-11-24T22:37:06.097Z,83.00
2022-11-24T22:40:10.301Z,62.25
2022-11-24T22:43:16.725Z,71.25
2022-11-24T22:46:27.075Z,77.00
2022-11-24T22:49:30.834Z,80.25
2022-11-24T22:52:34.522Z,60.00
2022-11-24T22:55:38.265Z,75.25
2022-11-24T22:58:42.166Z,84.75
2022-11-24T23:01:47.218Z,96.25
2022-11-24T23:04:50.600Z,80.75
2022-11-24T23:07:54.343Z,81.25
2022-11-24T23:11:02.205Z,98.75
2022-11-24T23:14:07.053Z,81.75
2022-11-24T23:17:11.983Z,79.00
2022-11-24T23:20:16.206Z,78.50
2022-11-24T23:23:19.607Z,70.50
2022-11-24T23:26:25.997Z,78.75
2022-11-24T23:29:29.461Z,52.25
2022-11-24T23:32:34.574Z,83.25
2022-11-24T23:35:37.943Z,92.25
2022-11-24T23:38:42.296Z,73.00
2022-11-24T23:41:45.619Z,76.50
2022-11-24T23:44:49.314Z,54.00
2022-11-24T23:47:55.800Z,61.25
2022-11-24T23:51:04.989Z,97.75
2022-11-24T23:54:09.662Z,80.00
2022-11-24T23:57:13.360Z,60.25
